sensor_id;sensor_type;location;lat;lon;timestamp;P1;durP1;ratioP1;P2;durP2;ratioP2
26588;SDS011;14235;48.532;8.722;2024-03-06T00:02:04;3.22;;;2.92;;
26588;SDS011;14235;48.532;8.722;2024-03-06T00:04:30;4.28;;;3.15;;
26588;SDS011;14235;48.532;8.722;2024-03-06T00:06:56;4.88;;;3.20;;
26588;SDS011;14235;48.532;8.722;2024-03-06T00:09:23;3.80;;;3.20;;
26588;SDS011;14235;48.532;8.722;2024-03-06T00:11:49;3.33;;;3.00;;
26588;SDS011;14235;48.532;8.722;2024-03-06T00:14:19;4.03;;;3.05;;
26588;SDS011;14235;48.532;8.722;2024-03-06T00:16:46;4.82;;;3.22;;
26588;SDS011;14235;48.532;8.722;2024-03-06T00:19:12;3.00;;;2.75;;
26588;SDS011;14235;48.532;8.722;2024-03-06T00:21:39;3.50;;;3.20;;
26588;SDS011;14235;48.532;8.722;2024-03-06T00:24:05;4.47;;;3.28;;
26588;SDS011;14235;48.532;8.722;2024-03-06T00:26:31;4.72;;;3.15;;
26588;SDS011;14235;48.532;8.722;2024-03-06T00:28:57;3.70;;;3.35;;
26588;SDS011;14235;48.532;8.722;2024-03-06T00:31:23;3.90;;;3.15;;
26588;SDS011;14235;48.532;8.722;2024-03-06T00:33:49;3.30;;;3.00;;
26588;SDS011;14235;48.532;8.722;2024-03-06T00:36:15;3.75;;;3.10;;
26588;SDS011;14235;48.532;8.722;2024-03-06T00:38:41;3.53;;;3.10;;
26588;SDS011;14235;48.532;8.722;2024-03-06T00:41:07;4.03;;;3.08;;
26588;SDS011;14235;48.532;8.722;2024-03-06T00:43:33;3.88;;;2.90;;
26588;SDS011;14235;48.532;8.722;2024-03-06T00:45:59;3.08;;;2.78;;
26588;SDS011;14235;48.532;8.722;2024-03-06T00:48:25;3.28;;;2.90;;
26588;SDS011;14235;48.532;8.722;2024-03-06T00:50:50;4.32;;;3.30;;
26588;SDS011;14235;48.532;8.722;2024-03-06T00:53:17;3.10;;;2.90;;
26588;SDS011;14235;48.532;8.722;2024-03-06T00:55:43;4.13;;;2.90;;
26588;SDS011;14235;48.532;8.722;2024-03-06T00:58:09;3.78;;;2.97;;
26588;SDS011;14235;48.532;8.722;2024-03-06T01:00:35;3.25;;;2.95;;
26588;SDS011;14235;48.532;8.722;2024-03-06T01:03:01;3.67;;;3.20;;
26588;SDS011;14235;48.532;8.722;2024-03-06T01:05:27;4.15;;;3.17;;
26588;SDS011;14235;48.532;8.722;2024-03-06T01:07:53;3.75;;;2.70;;
26588;SDS011;14235;48.532;8.722;2024-03-06T01:10:21;4.22;;;2.70;;
26588;SDS011;14235;48.532;8.722;2024-03-06T01:12:47;3.08;;;2.88;;
26588;SDS011;14235;48.532;8.722;2024-03-06T01:15:13;5.63;;;3.10;;
26588;SDS011;14235;48.532;8.722;2024-03-06T01:17:39;3.58;;;2.95;;
26588;SDS011;14235;48.532;8.722;2024-03-06T01:20:05;2.88;;;2.50;;
26588;SDS011;14235;48.532;8.722;2024-03-06T01:22:32;3.95;;;2.88;;
26588;SDS011;14235;48.532;8.722;2024-03-06T01:24:59;3.50;;;2.72;;
26588;SDS011;14235;48.532;8.722;2024-03-06T01:27:25;3.05;;;2.78;;
26588;SDS011;14235;48.532;8.722;2024-03-06T01:29:51;3.40;;;2.90;;
26588;SDS011;14235;48.532;8.722;2024-03-06T01:32:17;3.50;;;2.83;;
26588;SDS011;14235;48.532;8.722;2024-03-06T01:34:43;3.40;;;2.78;;
26588;SDS011;14235;48.532;8.722;2024-03-06T01:37:09;4.93;;;2.75;;
26588;SDS011;14235;48.532;8.722;2024-03-06T01:39:35;4.03;;;2.60;;
26588;SDS011;14235;48.532;8.722;2024-03-06T01:42:01;2.90;;;2.67;;
26588;SDS011;14235;48.532;8.722;2024-03-06T01:44:28;4.32;;;2.42;;
26588;SDS011;14235;48.532;8.722;2024-03-06T01:46:54;2.90;;;2.53;;
26588;SDS011;14235;48.532;8.722;2024-03-06T01:49:20;2.90;;;2.70;;
26588;SDS011;14235;48.532;8.722;2024-03-06T01:51:51;3.42;;;3.10;;
26588;SDS011;14235;48.532;8.722;2024-03-06T01:54:17;3.20;;;2.90;;
26588;SDS011;14235;48.532;8.722;2024-03-06T01:56:44;4.00;;;3.10;;
26588;SDS011;14235;48.532;8.722;2024-03-06T01:59:15;5.03;;;3.60;;
26588;SDS011;14235;48.532;8.722;2024-03-06T02:01:41;3.33;;;3.03;;
26588;SDS011;14235;48.532;8.722;2024-03-06T02:04:08;4.25;;;3.08;;
26588;SDS011;14235;48.532;8.722;2024-03-06T02:06:39;5.20;;;3.20;;
26588;SDS011;14235;48.532;8.722;2024-03-06T02:09:06;3.78;;;2.70;;
26588;SDS011;14235;48.532;8.722;2024-03-06T02:11:32;3.25;;;2.80;;
26588;SDS011;14235;48.532;8.722;2024-03-06T02:13:58;2.72;;;2.53;;
26588;SDS011;14235;48.532;8.722;2024-03-06T02:16:24;3.08;;;2.70;;
26588;SDS011;14235;48.532;8.722;2024-03-06T02:18:51;2.92;;;2.60;;
26588;SDS011;14235;48.532;8.722;2024-03-06T02:21:18;2.90;;;2.70;;
26588;SDS011;14235;48.532;8.722;2024-03-06T02:23:44;2.85;;;2.60;;
26588;SDS011;14235;48.532;8.722;2024-03-06T02:26:10;2.83;;;2.45;;
26588;SDS011;14235;48.532;8.722;2024-03-06T02:28:36;5.90;;;3.25;;
26588;SDS011;14235;48.532;8.722;2024-03-06T02:31:02;3.08;;;2.85;;
26588;SDS011;14235;48.532;8.722;2024-03-06T02:33:29;3.35;;;3.08;;
26588;SDS011;14235;48.532;8.722;2024-03-06T02:35:55;4.30;;;2.65;;
26588;SDS011;14235;48.532;8.722;2024-03-06T02:38:21;4.40;;;3.25;;
26588;SDS011;14235;48.532;8.722;2024-03-06T02:40:47;2.92;;;2.72;;
26588;SDS011;14235;48.532;8.722;2024-03-06T02:43:13;3.95;;;3.30;;
26588;SDS011;14235;48.532;8.722;2024-03-06T02:45:40;3.88;;;3.05;;
26588;SDS011;14235;48.532;8.722;2024-03-06T02:48:06;8.35;;;3.55;;
26588;SDS011;14235;48.532;8.722;2024-03-06T02:50:32;3.75;;;3.05;;
26588;SDS011;14235;48.532;8.722;2024-03-06T02:52:58;4.03;;;2.50;;
26588;SDS011;14235;48.532;8.722;2024-03-06T02:55:24;3.10;;;2.80;;
26588;SDS011;14235;48.532;8.722;2024-03-06T02:57:50;3.10;;;2.70;;
26588;SDS011;14235;48.532;8.722;2024-03-06T03:00:16;3.33;;;2.90;;
26588;SDS011;14235;48.532;8.722;2024-03-06T03:02:42;3.20;;;2.90;;
26588;SDS011;14235;48.532;8.722;2024-03-06T03:05:08;3.03;;;2.70;;
26588;SDS011;14235;48.532;8.722;2024-03-06T03:07:34;2.95;;;2.67;;
26588;SDS011;14235;48.532;8.722;2024-03-06T03:10:00;2.78;;;2.53;;
26588;SDS011;14235;48.532;8.722;2024-03-06T03:12:26;4.80;;;2.80;;
26588;SDS011;14235;48.532;8.722;2024-03-06T03:14:52;2.97;;;2.60;;
26588;SDS011;14235;48.532;8.722;2024-03-06T03:17:18;3.65;;;2.70;;
26588;SDS011;14235;48.532;8.722;2024-03-06T03:19:44;2.83;;;2.53;;
26588;SDS011;14235;48.532;8.722;2024-03-06T03:22:11;2.63;;;2.42;;
26588;SDS011;14235;48.532;8.722;2024-03-06T03:24:38;3.83;;;2.75;;
26588;SDS011;14235;48.532;8.722;2024-03-06T03:27:04;2.95;;;2.70;;
26588;SDS011;14235;48.532;8.722;2024-03-06T03:29:31;2.83;;;2.45;;
26588;SDS011;14235;48.532;8.722;2024-03-06T03:31:58;2.60;;;2.40;;
26588;SDS011;14235;48.532;8.722;2024-03-06T03:34:23;4.07;;;2.47;;
26588;SDS011;14235;48.532;8.722;2024-03-06T03:36:49;2.67;;;2.47;;
26588;SDS011;14235;48.532;8.722;2024-03-06T03:39:15;3.03;;;2.70;;
26588;SDS011;14235;48.532;8.722;2024-03-06T03:41:45;3.83;;;2.20;;
26588;SDS011;14235;48.532;8.722;2024-03-06T03:44:15;2.80;;;2.60;;
26588;SDS011;14235;48.532;8.722;2024-03-06T03:46:41;3.25;;;2.60;;
26588;SDS011;14235;48.532;8.722;2024-03-06T03:49:07;2.70;;;2.50;;
26588;SDS011;14235;48.532;8.722;2024-03-06T03:51:37;3.20;;;2.50;;
26588;SDS011;14235;48.532;8.722;2024-03-06T03:54:03;3.55;;;2.60;;
26588;SDS011;14235;48.532;8.722;2024-03-06T03:56:29;2.85;;;2.60;;
26588;SDS011;14235;48.532;8.722;2024-03-06T03:58:58;3.50;;;2.75;;
26588;SDS011;14235;48.532;8.722;2024-03-06T04:01:24;2.92;;;2.72;;
26588;SDS011;14235;48.532;8.722;2024-03-06T04:03:50;4.90;;;4.50;;
26588;SDS011;14235;48.532;8.722;2024-03-06T04:06:17;6.75;;;4.82;;
26588;SDS011;14235;48.532;8.722;2024-03-06T04:08:43;6.75;;;5.97;;
26588;SDS011;14235;48.532;8.722;2024-03-06T04:11:09;6.35;;;5.63;;
26588;SDS011;14235;48.532;8.722;2024-03-06T04:13:36;5.38;;;4.13;;
26588;SDS011;14235;48.532;8.722;2024-03-06T04:16:03;3.33;;;2.80;;
26588;SDS011;14235;48.532;8.722;2024-03-06T04:18:29;3.58;;;2.45;;
26588;SDS011;14235;48.532;8.722;2024-03-06T04:21:04;2.88;;;2.20;;
26588;SDS011;14235;48.532;8.722;2024-03-06T04:23:30;2.85;;;2.60;;
26588;SDS011;14235;48.532;8.722;2024-03-06T04:25:57;2.60;;;2.40;;
26588;SDS011;14235;48.532;8.722;2024-03-06T04:28:23;3.30;;;2.70;;
26588;SDS011;14235;48.532;8.722;2024-03-06T04:30:49;3.63;;;2.72;;
26588;SDS011;14235;48.532;8.722;2024-03-06T04:33:15;3.45;;;2.90;;
26588;SDS011;14235;48.532;8.722;2024-03-06T04:35:41;3.10;;;2.90;;
26588;SDS011;14235;48.532;8.722;2024-03-06T04:38:07;3.22;;;2.92;;
26588;SDS011;14235;48.532;8.722;2024-03-06T04:40:33;4.25;;;3.40;;
26588;SDS011;14235;48.532;8.722;2024-03-06T04:43:00;2.95;;;2.72;;
26588;SDS011;14235;48.532;8.722;2024-03-06T04:45:26;2.80;;;2.60;;
26588;SDS011;14235;48.532;8.722;2024-03-06T04:47:53;3.78;;;2.92;;
26588;SDS011;14235;48.532;8.722;2024-03-06T04:50:19;2.50;;;2.30;;
26588;SDS011;14235;48.532;8.722;2024-03-06T04:52:45;2.60;;;2.40;;
26588;SDS011;14235;48.532;8.722;2024-03-06T04:55:11;4.20;;;2.70;;
26588;SDS011;14235;48.532;8.722;2024-03-06T04:57:39;4.95;;;2.58;;
26588;SDS011;14235;48.532;8.722;2024-03-06T05:00:06;2.95;;;2.72;;
26588;SDS011;14235;48.532;8.722;2024-03-06T05:02:33;3.42;;;3.13;;
26588;SDS011;14235;48.532;8.722;2024-03-06T05:05:00;4.15;;;3.13;;
26588;SDS011;14235;48.532;8.722;2024-03-06T05:07:30;3.30;;;3.00;;
26588;SDS011;14235;48.532;8.722;2024-03-06T05:10:00;3.22;;;3.03;;
26588;SDS011;14235;48.532;8.722;2024-03-06T05:12:26;5.03;;;2.70;;
26588;SDS011;14235;48.532;8.722;2024-03-06T05:14:52;5.70;;;2.55;;
26588;SDS011;14235;48.532;8.722;2024-03-06T05:17:19;2.92;;;2.67;;
26588;SDS011;14235;48.532;8.722;2024-03-06T05:19:48;4.50;;;3.72;;
26588;SDS011;14235;48.532;8.722;2024-03-06T05:22:14;10.55;;;7.93;;
26588;SDS011;14235;48.532;8.722;2024-03-06T05:24:40;19.00;;;10.73;;
26588;SDS011;14235;48.532;8.722;2024-03-06T05:27:07;10.23;;;8.80;;
26588;SDS011;14235;48.532;8.722;2024-03-06T05:29:34;5.93;;;5.20;;
26588;SDS011;14235;48.532;8.722;2024-03-06T05:32:01;3.78;;;3.50;;
26588;SDS011;14235;48.532;8.722;2024-03-06T05:34:28;3.95;;;3.40;;
26588;SDS011;14235;48.532;8.722;2024-03-06T05:36:54;3.45;;;3.15;;
26588;SDS011;14235;48.532;8.722;2024-03-06T05:39:20;3.53;;;2.80;;
26588;SDS011;14235;48.532;8.722;2024-03-06T05:41:46;4.10;;;3.50;;
26588;SDS011;14235;48.532;8.722;2024-03-06T05:44:12;5.32;;;3.88;;
26588;SDS011;14235;48.532;8.722;2024-03-06T05:46:38;3.90;;;3.50;;
26588;SDS011;14235;48.532;8.722;2024-03-06T05:49:04;4.50;;;3.05;;
26588;SDS011;14235;48.532;8.722;2024-03-06T05:51:30;2.55;;;2.40;;
26588;SDS011;14235;48.532;8.722;2024-03-06T05:53:56;3.60;;;2.58;;
26588;SDS011;14235;48.532;8.722;2024-03-06T05:56:22;2.85;;;2.65;;
26588;SDS011;14235;48.532;8.722;2024-03-06T05:58:48;3.13;;;2.25;;
26588;SDS011;14235;48.532;8.722;2024-03-06T06:01:14;3.10;;;2.80;;
26588;SDS011;14235;48.532;8.722;2024-03-06T06:03:41;2.40;;;2.30;;
26588;SDS011;14235;48.532;8.722;2024-03-06T06:06:07;3.03;;;2.72;;
26588;SDS011;14235;48.532;8.722;2024-03-06T06:08:33;3.25;;;2.80;;
26588;SDS011;14235;48.532;8.722;2024-03-06T06:11:00;2.72;;;2.53;;
26588;SDS011;14235;48.532;8.722;2024-03-06T06:13:26;2.60;;;2.40;;
26588;SDS011;14235;48.532;8.722;2024-03-06T06:15:52;2.35;;;2.15;;
26588;SDS011;14235;48.532;8.722;2024-03-06T06:18:18;2.58;;;2.38;;
26588;SDS011;14235;48.532;8.722;2024-03-06T06:20:44;2.85;;;2.55;;
26588;SDS011;14235;48.532;8.722;2024-03-06T06:23:10;2.92;;;2.63;;
26588;SDS011;14235;48.532;8.722;2024-03-06T06:25:36;3.40;;;2.60;;
26588;SDS011;14235;48.532;8.722;2024-03-06T06:28:01;3.38;;;2.20;;
26588;SDS011;14235;48.532;8.722;2024-03-06T06:30:27;2.70;;;2.33;;
26588;SDS011;14235;48.532;8.722;2024-03-06T06:32:53;5.05;;;2.67;;
26588;SDS011;14235;48.532;8.722;2024-03-06T06:35:19;3.33;;;2.92;;
26588;SDS011;14235;48.532;8.722;2024-03-06T06:37:45;2.95;;;2.50;;
26588;SDS011;14235;48.532;8.722;2024-03-06T06:40:11;4.97;;;2.80;;
26588;SDS011;14235;48.532;8.722;2024-03-06T06:42:43;4.03;;;3.22;;
26588;SDS011;14235;48.532;8.722;2024-03-06T06:45:09;2.88;;;2.63;;
26588;SDS011;14235;48.532;8.722;2024-03-06T06:47:35;3.92;;;2.83;;
26588;SDS011;14235;48.532;8.722;2024-03-06T06:50:01;3.40;;;3.10;;
26588;SDS011;14235;48.532;8.722;2024-03-06T06:52:30;2.92;;;2.63;;
26588;SDS011;14235;48.532;8.722;2024-03-06T06:54:58;4.03;;;2.90;;
26588;SDS011;14235;48.532;8.722;2024-03-06T06:57:24;2.95;;;2.75;;
26588;SDS011;14235;48.532;8.722;2024-03-06T06:59:51;3.97;;;3.03;;
26588;SDS011;14235;48.532;8.722;2024-03-06T07:02:17;3.40;;;3.10;;
26588;SDS011;14235;48.532;8.722;2024-03-06T07:04:43;4.45;;;3.17;;
26588;SDS011;14235;48.532;8.722;2024-03-06T07:07:09;4.75;;;3.10;;
26588;SDS011;14235;48.532;8.722;2024-03-06T07:09:35;2.95;;;2.63;;
26588;SDS011;14235;48.532;8.722;2024-03-06T07:12:01;3.28;;;2.80;;
26588;SDS011;14235;48.532;8.722;2024-03-06T07:14:28;3.40;;;3.10;;
26588;SDS011;14235;48.532;8.722;2024-03-06T07:16:54;4.07;;;3.20;;
26588;SDS011;14235;48.532;8.722;2024-03-06T07:19:19;3.53;;;3.05;;
26588;SDS011;14235;48.532;8.722;2024-03-06T07:21:45;5.07;;;3.28;;
26588;SDS011;14235;48.532;8.722;2024-03-06T07:24:12;7.55;;;3.08;;
26588;SDS011;14235;48.532;8.722;2024-03-06T07:29:06;3.35;;;2.42;;
26588;SDS011;14235;48.532;8.722;2024-03-06T07:31:39;2.55;;;2.33;;
26588;SDS011;14235;48.532;8.722;2024-03-06T07:34:06;3.85;;;2.80;;
26588;SDS011;14235;48.532;8.722;2024-03-06T07:36:33;3.90;;;3.08;;
26588;SDS011;14235;48.532;8.722;2024-03-06T07:38:59;2.67;;;2.47;;
26588;SDS011;14235;48.532;8.722;2024-03-06T07:41:25;2.30;;;2.20;;
26588;SDS011;14235;48.532;8.722;2024-03-06T07:43:51;3.83;;;2.85;;
26588;SDS011;14235;48.532;8.722;2024-03-06T07:46:17;3.20;;;2.83;;
26588;SDS011;14235;48.532;8.722;2024-03-06T07:48:43;2.72;;;2.45;;
26588;SDS011;14235;48.532;8.722;2024-03-06T07:51:09;3.63;;;3.10;;
26588;SDS011;14235;48.532;8.722;2024-03-06T07:53:35;4.47;;;3.17;;
26588;SDS011;14235;48.532;8.722;2024-03-06T07:56:02;4.28;;;2.75;;
26588;SDS011;14235;48.532;8.722;2024-03-06T07:58:28;3.83;;;3.08;;
26588;SDS011;14235;48.532;8.722;2024-03-06T08:00:54;4.00;;;2.92;;
26588;SDS011;14235;48.532;8.722;2024-03-06T08:03:21;4.63;;;3.08;;
26588;SDS011;14235;48.532;8.722;2024-03-06T08:05:50;4.00;;;3.50;;
26588;SDS011;14235;48.532;8.722;2024-03-06T08:08:17;3.75;;;3.22;;
26588;SDS011;14235;48.532;8.722;2024-03-06T08:10:43;4.03;;;3.60;;
26588;SDS011;14235;48.532;8.722;2024-03-06T08:13:10;3.63;;;3.33;;
26588;SDS011;14235;48.532;8.722;2024-03-06T08:15:36;6.10;;;3.50;;
26588;SDS011;14235;48.532;8.722;2024-03-06T08:18:02;5.60;;;3.97;;
26588;SDS011;14235;48.532;8.722;2024-03-06T08:20:31;10.73;;;5.90;;
26588;SDS011;14235;48.532;8.722;2024-03-06T08:22:58;5.05;;;4.05;;
26588;SDS011;14235;48.532;8.722;2024-03-06T08:25:24;11.05;;;8.68;;
26588;SDS011;14235;48.532;8.722;2024-03-06T08:27:50;15.65;;;13.50;;
26588;SDS011;14235;48.532;8.722;2024-03-06T08:30:16;27.60;;;19.33;;
26588;SDS011;14235;48.532;8.722;2024-03-06T08:32:42;13.82;;;10.63;;
26588;SDS011;14235;48.532;8.722;2024-03-06T08:35:09;16.15;;;10.73;;
26588;SDS011;14235;48.532;8.722;2024-03-06T08:37:39;11.35;;;7.72;;
26588;SDS011;14235;48.532;8.722;2024-03-06T08:40:05;6.90;;;5.10;;
26588;SDS011;14235;48.532;8.722;2024-03-06T08:42:39;6.90;;;5.60;;
26588;SDS011;14235;48.532;8.722;2024-03-06T08:45:05;8.18;;;4.88;;
26588;SDS011;14235;48.532;8.722;2024-03-06T08:47:31;5.85;;;5.25;;
26588;SDS011;14235;48.532;8.722;2024-03-06T08:49:57;8.25;;;5.00;;
26588;SDS011;14235;48.532;8.722;2024-03-06T08:52:23;7.97;;;6.32;;
26588;SDS011;14235;48.532;8.722;2024-03-06T08:54:49;7.47;;;6.18;;
26588;SDS011;14235;48.532;8.722;2024-03-06T08:57:15;8.75;;;6.22;;
26588;SDS011;14235;48.532;8.722;2024-03-06T08:59:41;6.40;;;5.13;;
26588;SDS011;14235;48.532;8.722;2024-03-06T09:02:18;5.78;;;4.38;;
26588;SDS011;14235;48.532;8.722;2024-03-06T09:04:44;8.43;;;4.63;;
26588;SDS011;14235;48.532;8.722;2024-03-06T09:07:10;4.20;;;3.78;;
26588;SDS011;14235;48.532;8.722;2024-03-06T09:09:37;4.13;;;3.47;;
26588;SDS011;14235;48.532;8.722;2024-03-06T09:12:06;9.00;;;4.40;;
26588;SDS011;14235;48.532;8.722;2024-03-06T09:14:34;5.63;;;4.05;;
26588;SDS011;14235;48.532;8.722;2024-03-06T09:17:00;5.05;;;4.25;;
26588;SDS011;14235;48.532;8.722;2024-03-06T09:19:26;4.82;;;4.13;;
26588;SDS011;14235;48.532;8.722;2024-03-06T09:21:52;5.22;;;4.22;;
26588;SDS011;14235;48.532;8.722;2024-03-06T09:24:20;4.38;;;3.83;;
26588;SDS011;14235;48.532;8.722;2024-03-06T09:26:47;5.82;;;4.00;;
26588;SDS011;14235;48.532;8.722;2024-03-06T09:29:13;5.32;;;4.40;;
26588;SDS011;14235;48.532;8.722;2024-03-06T09:31:39;5.30;;;4.68;;
26588;SDS011;14235;48.532;8.722;2024-03-06T09:34:05;5.25;;;4.28;;
26588;SDS011;14235;48.532;8.722;2024-03-06T09:36:31;4.45;;;4.00;;
26588;SDS011;14235;48.532;8.722;2024-03-06T09:38:58;4.78;;;3.83;;
26588;SDS011;14235;48.532;8.722;2024-03-06T09:41:24;3.83;;;3.53;;
26588;SDS011;14235;48.532;8.722;2024-03-06T09:43:50;4.63;;;4.22;;
26588;SDS011;14235;48.532;8.722;2024-03-06T09:46:17;7.90;;;4.28;;
26588;SDS011;14235;48.532;8.722;2024-03-06T09:48:47;4.70;;;4.35;;
26588;SDS011;14235;48.532;8.722;2024-03-06T09:51:13;4.60;;;4.20;;
26588;SDS011;14235;48.532;8.722;2024-03-06T09:53:39;4.65;;;3.90;;
26588;SDS011;14235;48.532;8.722;2024-03-06T09:56:06;4.60;;;4.20;;
26588;SDS011;14235;48.532;8.722;2024-03-06T09:58:33;5.78;;;4.65;;
26588;SDS011;14235;48.532;8.722;2024-03-06T10:00:59;3.85;;;3.55;;
26588;SDS011;14235;48.532;8.722;2024-03-06T10:03:28;3.83;;;3.50;;
26588;SDS011;14235;48.532;8.722;2024-03-06T10:05:54;4.05;;;3.75;;
26588;SDS011;14235;48.532;8.722;2024-03-06T10:08:21;4.15;;;3.75;;
26588;SDS011;14235;48.532;8.722;2024-03-06T10:10:49;4.63;;;3.72;;
26588;SDS011;14235;48.532;8.722;2024-03-06T10:13:25;5.00;;;4.13;;
26588;SDS011;14235;48.532;8.722;2024-03-06T10:15:55;4.38;;;3.97;;
26588;SDS011;14235;48.532;8.722;2024-03-06T10:18:22;5.95;;;4.30;;
26588;SDS011;14235;48.532;8.722;2024-03-06T10:20:51;5.28;;;4.05;;
26588;SDS011;14235;48.532;8.722;2024-03-06T10:23:18;4.13;;;3.80;;
26588;SDS011;14235;48.532;8.722;2024-03-06T10:25:44;5.72;;;4.15;;
26588;SDS011;14235;48.532;8.722;2024-03-06T10:28:11;3.92;;;3.55;;
26588;SDS011;14235;48.532;8.722;2024-03-06T10:30:38;4.57;;;3.53;;
26588;SDS011;14235;48.532;8.722;2024-03-06T10:33:07;3.58;;;3.28;;
26588;SDS011;14235;48.532;8.722;2024-03-06T10:35:33;3.10;;;2.90;;
26588;SDS011;14235;48.532;8.722;2024-03-06T10:38:01;3.22;;;2.92;;
26588;SDS011;14235;48.532;8.722;2024-03-06T10:40:37;3.95;;;3.55;;
26588;SDS011;14235;48.532;8.722;2024-03-06T10:43:04;3.95;;;3.60;;
26588;SDS011;14235;48.532;8.722;2024-03-06T10:48:08;4.53;;;4.07;;
26588;SDS011;14235;48.532;8.722;2024-03-06T10:50:40;5.53;;;3.97;;
26588;SDS011;14235;48.532;8.722;2024-03-06T10:53:11;3.25;;;2.85;;
26588;SDS011;14235;48.532;8.722;2024-03-06T10:55:37;9.38;;;7.10;;
26588;SDS011;14235;48.532;8.722;2024-03-06T10:58:05;7.20;;;5.07;;
26588;SDS011;14235;48.532;8.722;2024-03-06T11:00:34;3.28;;;2.83;;
26588;SDS011;14235;48.532;8.722;2024-03-06T11:03:02;3.60;;;3.30;;
26588;SDS011;14235;48.532;8.722;2024-03-06T11:05:33;3.30;;;3.00;;
26588;SDS011;14235;48.532;8.722;2024-03-06T11:07:59;3.40;;;2.88;;
26588;SDS011;14235;48.532;8.722;2024-03-06T11:10:34;3.10;;;2.80;;
26588;SDS011;14235;48.532;8.722;2024-03-06T11:13:04;3.65;;;2.92;;
26588;SDS011;14235;48.532;8.722;2024-03-06T11:15:34;3.15;;;2.95;;
26588;SDS011;14235;48.532;8.722;2024-03-06T11:18:40;4.25;;;3.28;;
26588;SDS011;14235;48.532;8.722;2024-03-06T11:20:46;3.00;;;2.58;;
26588;SDS011;14235;48.532;8.722;2024-03-06T11:23:12;3.30;;;3.00;;
26588;SDS011;14235;48.532;8.722;2024-03-06T11:28:16;3.03;;;2.83;;
26588;SDS011;14235;48.532;8.722;2024-03-06T11:31:25;3.65;;;2.75;;
26588;SDS011;14235;48.532;8.722;2024-03-06T11:33:40;2.75;;;2.55;;
26588;SDS011;14235;48.532;8.722;2024-03-06T11:39:07;3.13;;;2.67;;
26588;SDS011;14235;48.532;8.722;2024-03-06T11:44:02;4.22;;;2.60;;
26588;SDS011;14235;48.532;8.722;2024-03-06T11:49:16;3.00;;;2.72;;
26588;SDS011;14235;48.532;8.722;2024-03-06T11:51:48;3.03;;;2.83;;
26588;SDS011;14235;48.532;8.722;2024-03-06T11:54:14;3.22;;;2.92;;
26588;SDS011;14235;48.532;8.722;2024-03-06T11:56:42;3.25;;;2.97;;
26588;SDS011;14235;48.532;8.722;2024-03-06T11:59:09;3.38;;;3.08;;
26588;SDS011;14235;48.532;8.722;2024-03-06T12:01:35;3.05;;;2.85;;
26588;SDS011;14235;48.532;8.722;2024-03-06T12:04:01;2.75;;;2.55;;
26588;SDS011;14235;48.532;8.722;2024-03-06T12:06:29;4.68;;;3.50;;
26588;SDS011;14235;48.532;8.722;2024-03-06T12:08:55;3.70;;;2.90;;
26588;SDS011;14235;48.532;8.722;2024-03-06T12:11:20;2.92;;;2.72;;
26588;SDS011;14235;48.532;8.722;2024-03-06T12:13:47;2.80;;;2.60;;
26588;SDS011;14235;48.532;8.722;2024-03-06T12:16:13;2.90;;;2.70;;
26588;SDS011;14235;48.532;8.722;2024-03-06T12:18:40;3.20;;;2.90;;
26588;SDS011;14235;48.532;8.722;2024-03-06T12:21:06;3.38;;;3.17;;
26588;SDS011;14235;48.532;8.722;2024-03-06T12:23:31;3.00;;;2.72;;
26588;SDS011;14235;48.532;8.722;2024-03-06T12:26:04;3.25;;;3.05;;
26588;SDS011;14235;48.532;8.722;2024-03-06T12:28:31;3.17;;;2.88;;
26588;SDS011;14235;48.532;8.722;2024-03-06T12:30:57;3.08;;;2.83;;
26588;SDS011;14235;48.532;8.722;2024-03-06T12:33:26;3.42;;;3.17;;
26588;SDS011;14235;48.532;8.722;2024-03-06T12:36:10;3.28;;;2.97;;
26588;SDS011;14235;48.532;8.722;2024-03-06T12:38:37;4.22;;;3.08;;
26588;SDS011;14235;48.532;8.722;2024-03-06T12:41:04;3.42;;;3.17;;
26588;SDS011;14235;48.532;8.722;2024-03-06T12:43:30;4.38;;;3.97;;
26588;SDS011;14235;48.532;8.722;2024-03-06T12:45:58;5.07;;;3.83;;
26588;SDS011;14235;48.532;8.722;2024-03-06T12:48:24;3.72;;;3.50;;
26588;SDS011;14235;48.532;8.722;2024-03-06T12:50:50;4.07;;;3.78;;
26588;SDS011;14235;48.532;8.722;2024-03-06T12:53:19;3.47;;;3.17;;
26588;SDS011;14235;48.532;8.722;2024-03-06T12:55:45;3.38;;;3.17;;
26588;SDS011;14235;48.532;8.722;2024-03-06T12:58:12;3.67;;;3.38;;
26588;SDS011;14235;48.532;8.722;2024-03-06T13:00:38;3.83;;;3.53;;
26588;SDS011;14235;48.532;8.722;2024-03-06T13:03:04;3.75;;;3.38;;
26588;SDS011;14235;48.532;8.722;2024-03-06T13:05:30;4.30;;;3.47;;
26588;SDS011;14235;48.532;8.722;2024-03-06T13:07:56;3.47;;;3.17;;
26588;SDS011;14235;48.532;8.722;2024-03-06T13:10:22;3.35;;;3.05;;
26588;SDS011;14235;48.532;8.722;2024-03-06T13:12:48;3.33;;;3.05;;
26588;SDS011;14235;48.532;8.722;2024-03-06T13:15:14;4.50;;;4.10;;
26588;SDS011;14235;48.532;8.722;2024-03-06T13:17:40;3.53;;;3.22;;
26588;SDS011;14235;48.532;8.722;2024-03-06T13:20:09;3.50;;;3.08;;
26588;SDS011;14235;48.532;8.722;2024-03-06T13:22:38;4.15;;;3.28;;
26588;SDS011;14235;48.532;8.722;2024-03-06T13:25:04;4.00;;;3.70;;
26588;SDS011;14235;48.532;8.722;2024-03-06T13:27:31;3.63;;;3.42;;
26588;SDS011;14235;48.532;8.722;2024-03-06T13:29:57;3.58;;;3.30;;
26588;SDS011;14235;48.532;8.722;2024-03-06T13:32:24;4.28;;;3.92;;
26588;SDS011;14235;48.532;8.722;2024-03-06T13:34:50;4.45;;;4.05;;
26588;SDS011;14235;48.532;8.722;2024-03-06T13:37:16;5.93;;;3.97;;
26588;SDS011;14235;48.532;8.722;2024-03-06T13:39:42;4.00;;;3.70;;
26588;SDS011;14235;48.532;8.722;2024-03-06T13:42:08;4.13;;;3.83;;
26588;SDS011;14235;48.532;8.722;2024-03-06T13:44:37;4.70;;;4.18;;
26588;SDS011;14235;48.532;8.722;2024-03-06T13:47:03;5.50;;;5.00;;
26588;SDS011;14235;48.532;8.722;2024-03-06T13:49:39;5.38;;;4.88;;
26588;SDS011;14235;48.532;8.722;2024-03-06T13:52:05;5.13;;;4.70;;
26588;SDS011;14235;48.532;8.722;2024-03-06T13:54:32;4.90;;;4.50;;
26588;SDS011;14235;48.532;8.722;2024-03-06T13:56:58;4.97;;;4.50;;
26588;SDS011;14235;48.532;8.722;2024-03-06T13:59:28;6.82;;;6.13;;
26588;SDS011;14235;48.532;8.722;2024-03-06T14:01:54;6.63;;;5.93;;
26588;SDS011;14235;48.532;8.722;2024-03-06T14:04:20;6.78;;;6.07;;
26588;SDS011;14235;48.532;8.722;2024-03-06T14:06:46;5.28;;;4.82;;
26588;SDS011;14235;48.532;8.722;2024-03-06T14:09:13;4.85;;;4.47;;
26588;SDS011;14235;48.532;8.722;2024-03-06T14:11:39;6.78;;;4.95;;
26588;SDS011;14235;48.532;8.722;2024-03-06T14:14:06;4.55;;;4.20;;
26588;SDS011;14235;48.532;8.722;2024-03-06T14:16:33;5.35;;;4.85;;
26588;SDS011;14235;48.532;8.722;2024-03-06T14:18:59;5.45;;;4.95;;
26588;SDS011;14235;48.532;8.722;2024-03-06T14:21:25;6.03;;;5.50;;
26588;SDS011;14235;48.532;8.722;2024-03-06T14:23:51;5.82;;;5.32;;
26588;SDS011;14235;48.532;8.722;2024-03-06T14:26:17;5.30;;;4.80;;
26588;SDS011;14235;48.532;8.722;2024-03-06T14:28:43;5.38;;;4.97;;
26588;SDS011;14235;48.532;8.722;2024-03-06T14:31:09;5.78;;;5.25;;
26588;SDS011;14235;48.532;8.722;2024-03-06T14:33:39;5.10;;;4.70;;
26588;SDS011;14235;48.532;8.722;2024-03-06T14:36:05;5.32;;;4.90;;
26588;SDS011;14235;48.532;8.722;2024-03-06T14:38:31;5.35;;;4.85;;
26588;SDS011;14235;48.532;8.722;2024-03-06T14:40:58;6.40;;;5.30;;
26588;SDS011;14235;48.532;8.722;2024-03-06T14:43:24;5.53;;;5.10;;
26588;SDS011;14235;48.532;8.722;2024-03-06T14:45:50;6.03;;;5.53;;
26588;SDS011;14235;48.532;8.722;2024-03-06T14:48:16;6.00;;;5.50;;
26588;SDS011;14235;48.532;8.722;2024-03-06T14:50:43;5.80;;;5.30;;
26588;SDS011;14235;48.532;8.722;2024-03-06T14:53:09;5.53;;;5.03;;
26588;SDS011;14235;48.532;8.722;2024-03-06T14:55:35;6.88;;;5.00;;
26588;SDS011;14235;48.532;8.722;2024-03-06T14:58:01;5.38;;;4.97;;
26588;SDS011;14235;48.532;8.722;2024-03-06T15:00:27;6.22;;;5.30;;
26588;SDS011;14235;48.532;8.722;2024-03-06T15:02:53;6.22;;;5.63;;